Terminal Aerodrome Forecast
Issued by NWS

Current Version | Previous Version | Text Only | Print | Product List | Glossary On
Versions: 1 2 3 4 5 6 7 8 9 10 11 12 13 14
000
FTUS46 KLOX 201700
TAFWJF
TAF
KWJF 201740Z 2018/2118 VRB05KT P6SM SCT200
     FM202000 24010KT P6SM SCT200
     FM202200 24015G25KT P6SM SCT150 BKN200
     FM210300 25012KT P6SM SCT120 BKN150
     FM211500 26006KT P6SM SCT250=

USA.gov is the U.S. government's official web portal to all federal, state and local government web resources and services.